sensor_id;sensor_type;location;lat;lon;timestamp;P1;durP1;ratioP1;P2;durP2;ratioP2
51943;SDS011;37969;53.132;6.370;2023-08-06T00:00:07;35.70;;;27.25;;
51943;SDS011;37969;53.132;6.370;2023-08-06T00:02:33;32.67;;;24.05;;
51943;SDS011;37969;53.132;6.370;2023-08-06T00:05:00;28.33;;;22.85;;
51943;SDS011;37969;53.132;6.370;2023-08-06T00:07:26;30.75;;;22.58;;
51943;SDS011;37969;53.132;6.370;2023-08-06T00:09:52;28.90;;;21.08;;
51943;SDS011;37969;53.132;6.370;2023-08-06T00:12:18;24.73;;;19.00;;
51943;SDS011;37969;53.132;6.370;2023-08-06T00:14:44;24.35;;;19.15;;
51943;SDS011;37969;53.132;6.370;2023-08-06T00:17:10;21.33;;;17.80;;
51943;SDS011;37969;53.132;6.370;2023-08-06T00:19:37;23.33;;;18.60;;
51943;SDS011;37969;53.132;6.370;2023-08-06T00:22:03;20.08;;;18.08;;
51943;SDS011;37969;53.132;6.370;2023-08-06T00:24:29;21.80;;;17.05;;
51943;SDS011;37969;53.132;6.370;2023-08-06T00:26:55;22.70;;;18.05;;
51943;SDS011;37969;53.132;6.370;2023-08-06T00:29:21;21.30;;;18.05;;
51943;SDS011;37969;53.132;6.370;2023-08-06T00:31:47;22.75;;;18.02;;
51943;SDS011;37969;53.132;6.370;2023-08-06T00:34:13;26.60;;;19.88;;
51943;SDS011;37969;53.132;6.370;2023-08-06T00:36:40;22.25;;;19.35;;
51943;SDS011;37969;53.132;6.370;2023-08-06T00:39:06;21.00;;;18.02;;
51943;SDS011;37969;53.132;6.370;2023-08-06T00:41:32;22.00;;;18.42;;
51943;SDS011;37969;53.132;6.370;2023-08-06T00:43:58;26.58;;;20.58;;
51943;SDS011;37969;53.132;6.370;2023-08-06T00:46:24;20.98;;;18.73;;
51943;SDS011;37969;53.132;6.370;2023-08-06T00:48:51;23.63;;;19.48;;
51943;SDS011;37969;53.132;6.370;2023-08-06T00:51:17;22.77;;;18.60;;
51943;SDS011;37969;53.132;6.370;2023-08-06T00:53:43;26.48;;;19.83;;
51943;SDS011;37969;53.132;6.370;2023-08-06T00:56:09;25.10;;;20.38;;
51943;SDS011;37969;53.132;6.370;2023-08-06T00:58:35;28.65;;;21.08;;
51943;SDS011;37969;53.132;6.370;2023-08-06T01:01:02;29.20;;;22.23;;
51943;SDS011;37969;53.132;6.370;2023-08-06T01:03:28;29.65;;;21.13;;
51943;SDS011;37969;53.132;6.370;2023-08-06T01:05:54;28.20;;;22.15;;
51943;SDS011;37969;53.132;6.370;2023-08-06T01:08:26;24.92;;;19.63;;
51943;SDS011;37969;53.132;6.370;2023-08-06T01:13:42;21.75;;;16.85;;
51943;SDS011;37969;53.132;6.370;2023-08-06T01:16:12;23.23;;;17.92;;
51943;SDS011;37969;53.132;6.370;2023-08-06T01:18:39;21.02;;;17.58;;
51943;SDS011;37969;53.132;6.370;2023-08-06T01:21:07;25.13;;;20.35;;
51943;SDS011;37969;53.132;6.370;2023-08-06T01:23:33;22.30;;;16.75;;
51943;SDS011;37969;53.132;6.370;2023-08-06T01:26:05;23.75;;;19.05;;
51943;SDS011;37969;53.132;6.370;2023-08-06T01:31:04;27.23;;;17.30;;
51943;SDS011;37969;53.132;6.370;2023-08-06T01:33:32;19.42;;;15.57;;
51943;SDS011;37969;53.132;6.370;2023-08-06T01:35:59;20.50;;;15.68;;
51943;SDS011;37969;53.132;6.370;2023-08-06T01:38:25;25.08;;;16.67;;
51943;SDS011;37969;53.132;6.370;2023-08-06T01:40:53;17.80;;;15.65;;
51943;SDS011;37969;53.132;6.370;2023-08-06T01:43:19;20.48;;;16.15;;
51943;SDS011;37969;53.132;6.370;2023-08-06T01:45:45;22.42;;;18.27;;
51943;SDS011;37969;53.132;6.370;2023-08-06T01:48:11;18.08;;;15.88;;
51943;SDS011;37969;53.132;6.370;2023-08-06T01:50:37;22.55;;;17.08;;
51943;SDS011;37969;53.132;6.370;2023-08-06T01:53:04;21.33;;;16.70;;
51943;SDS011;37969;53.132;6.370;2023-08-06T01:55:30;21.25;;;15.75;;
51943;SDS011;37969;53.132;6.370;2023-08-06T01:57:56;18.13;;;15.88;;
51943;SDS011;37969;53.132;6.370;2023-08-06T02:00:22;20.58;;;15.60;;
51943;SDS011;37969;53.132;6.370;2023-08-06T02:02:48;18.67;;;16.63;;
51943;SDS011;37969;53.132;6.370;2023-08-06T02:05:15;21.40;;;17.17;;
51943;SDS011;37969;53.132;6.370;2023-08-06T02:07:41;22.77;;;17.50;;
51943;SDS011;37969;53.132;6.370;2023-08-06T02:10:07;20.73;;;15.75;;
51943;SDS011;37969;53.132;6.370;2023-08-06T02:12:33;19.10;;;17.10;;
51943;SDS011;37969;53.132;6.370;2023-08-06T02:14:59;24.90;;;17.58;;
51943;SDS011;37969;53.132;6.370;2023-08-06T02:17:25;22.02;;;18.25;;
51943;SDS011;37969;53.132;6.370;2023-08-06T02:19:52;23.65;;;19.13;;
51943;SDS011;37969;53.132;6.370;2023-08-06T02:22:18;28.17;;;19.98;;
51943;SDS011;37969;53.132;6.370;2023-08-06T02:24:44;26.63;;;19.88;;
51943;SDS011;37969;53.132;6.370;2023-08-06T02:27:10;25.95;;;18.65;;
51943;SDS011;37969;53.132;6.370;2023-08-06T02:29:36;26.67;;;20.17;;
51943;SDS011;37969;53.132;6.370;2023-08-06T02:32:02;25.52;;;20.00;;
51943;SDS011;37969;53.132;6.370;2023-08-06T02:34:29;28.52;;;22.10;;
51943;SDS011;37969;53.132;6.370;2023-08-06T02:36:55;25.98;;;21.27;;
51943;SDS011;37969;53.132;6.370;2023-08-06T02:39:21;28.83;;;23.20;;
51943;SDS011;37969;53.132;6.370;2023-08-06T02:41:47;34.17;;;25.35;;
51943;SDS011;37969;53.132;6.370;2023-08-06T02:44:14;28.42;;;21.13;;
51943;SDS011;37969;53.132;6.370;2023-08-06T02:46:40;25.20;;;21.00;;
51943;SDS011;37969;53.132;6.370;2023-08-06T02:49:06;33.00;;;24.10;;
51943;SDS011;37969;53.132;6.370;2023-08-06T02:51:32;30.33;;;22.63;;
51943;SDS011;37969;53.132;6.370;2023-08-06T02:53:59;35.92;;;25.73;;
51943;SDS011;37969;53.132;6.370;2023-08-06T02:56:25;26.02;;;21.60;;
51943;SDS011;37969;53.132;6.370;2023-08-06T02:58:51;23.92;;;21.48;;
51943;SDS011;37969;53.132;6.370;2023-08-06T03:01:17;32.92;;;25.08;;
51943;SDS011;37969;53.132;6.370;2023-08-06T03:03:43;31.83;;;24.40;;
51943;SDS011;37969;53.132;6.370;2023-08-06T03:06:10;32.45;;;23.65;;
51943;SDS011;37969;53.132;6.370;2023-08-06T03:08:36;29.95;;;24.05;;
51943;SDS011;37969;53.132;6.370;2023-08-06T03:11:02;27.23;;;23.02;;
51943;SDS011;37969;53.132;6.370;2023-08-06T03:13:28;32.42;;;24.17;;
51943;SDS011;37969;53.132;6.370;2023-08-06T03:15:55;28.48;;;22.92;;
51943;SDS011;37969;53.132;6.370;2023-08-06T03:18:21;25.42;;;21.50;;
51943;SDS011;37969;53.132;6.370;2023-08-06T03:20:48;30.27;;;23.60;;
51943;SDS011;37969;53.132;6.370;2023-08-06T03:23:15;28.65;;;22.25;;
51943;SDS011;37969;53.132;6.370;2023-08-06T03:25:41;23.88;;;19.60;;
51943;SDS011;37969;53.132;6.370;2023-08-06T03:28:07;32.25;;;21.15;;
51943;SDS011;37969;53.132;6.370;2023-08-06T03:30:33;26.23;;;20.98;;
51943;SDS011;37969;53.132;6.370;2023-08-06T03:32:59;24.33;;;20.95;;
51943;SDS011;37969;53.132;6.370;2023-08-06T03:35:25;25.92;;;20.70;;
51943;SDS011;37969;53.132;6.370;2023-08-06T03:37:52;24.23;;;20.60;;
51943;SDS011;37969;53.132;6.370;2023-08-06T03:40:18;23.98;;;20.83;;
51943;SDS011;37969;53.132;6.370;2023-08-06T03:42:44;22.83;;;19.98;;
51943;SDS011;37969;53.132;6.370;2023-08-06T03:45:10;24.83;;;20.70;;
51943;SDS011;37969;53.132;6.370;2023-08-06T03:47:36;27.38;;;22.15;;
51943;SDS011;37969;53.132;6.370;2023-08-06T03:50:02;28.33;;;22.15;;
51943;SDS011;37969;53.132;6.370;2023-08-06T03:52:29;26.25;;;21.42;;
51943;SDS011;37969;53.132;6.370;2023-08-06T03:54:55;22.17;;;19.83;;
51943;SDS011;37969;53.132;6.370;2023-08-06T03:57:21;24.05;;;20.45;;
51943;SDS011;37969;53.132;6.370;2023-08-06T03:59:47;26.10;;;20.02;;
51943;SDS011;37969;53.132;6.370;2023-08-06T04:02:13;22.15;;;19.73;;
51943;SDS011;37969;53.132;6.370;2023-08-06T04:04:39;26.15;;;22.17;;
51943;SDS011;37969;53.132;6.370;2023-08-06T04:07:05;23.08;;;19.05;;
51943;SDS011;37969;53.132;6.370;2023-08-06T04:09:32;22.70;;;20.30;;
51943;SDS011;37969;53.132;6.370;2023-08-06T04:11:58;26.23;;;20.88;;
51943;SDS011;37969;53.132;6.370;2023-08-06T04:14:26;29.08;;;22.95;;
51943;SDS011;37969;53.132;6.370;2023-08-06T04:16:52;27.85;;;21.42;;
51943;SDS011;37969;53.132;6.370;2023-08-06T04:19:18;32.00;;;22.08;;
51943;SDS011;37969;53.132;6.370;2023-08-06T04:21:44;23.95;;;21.05;;
51943;SDS011;37969;53.132;6.370;2023-08-06T04:24:11;26.45;;;21.00;;
51943;SDS011;37969;53.132;6.370;2023-08-06T04:26:37;31.05;;;22.85;;
51943;SDS011;37969;53.132;6.370;2023-08-06T04:29:03;29.17;;;21.95;;
51943;SDS011;37969;53.132;6.370;2023-08-06T04:31:29;24.42;;;19.33;;
51943;SDS011;37969;53.132;6.370;2023-08-06T04:33:55;31.02;;;22.25;;
51943;SDS011;37969;53.132;6.370;2023-08-06T04:36:21;29.45;;;21.85;;
51943;SDS011;37969;53.132;6.370;2023-08-06T04:38:48;30.25;;;23.25;;
51943;SDS011;37969;53.132;6.370;2023-08-06T04:41:14;28.65;;;20.42;;
51943;SDS011;37969;53.132;6.370;2023-08-06T04:43:40;24.73;;;20.90;;
51943;SDS011;37969;53.132;6.370;2023-08-06T04:46:06;31.05;;;21.05;;
51943;SDS011;37969;53.132;6.370;2023-08-06T04:48:32;26.08;;;19.90;;
51943;SDS011;37969;53.132;6.370;2023-08-06T04:50:58;23.73;;;20.27;;
51943;SDS011;37969;53.132;6.370;2023-08-06T04:53:25;24.77;;;20.17;;
51943;SDS011;37969;53.132;6.370;2023-08-06T04:55:51;22.08;;;19.17;;
51943;SDS011;37969;53.132;6.370;2023-08-06T04:58:17;22.42;;;18.65;;
51943;SDS011;37969;53.132;6.370;2023-08-06T05:00:43;26.20;;;20.00;;
51943;SDS011;37969;53.132;6.370;2023-08-06T07:36:37;9.40;;;8.55;;
51943;SDS011;37969;53.132;6.370;2023-08-06T07:39:06;10.02;;;7.53;;
51943;SDS011;37969;53.132;6.370;2023-08-06T07:41:32;8.03;;;7.33;;
51943;SDS011;37969;53.132;6.370;2023-08-06T07:43:59;8.20;;;7.40;;
51943;SDS011;37969;53.132;6.370;2023-08-06T07:46:28;9.65;;;8.70;;
51943;SDS011;37969;53.132;6.370;2023-08-06T07:48:54;7.70;;;7.03;;
51943;SDS011;37969;53.132;6.370;2023-08-06T07:51:20;7.60;;;6.80;;
51943;SDS011;37969;53.132;6.370;2023-08-06T07:53:47;8.02;;;7.32;;
51943;SDS011;37969;53.132;6.370;2023-08-06T07:56:13;7.43;;;6.72;;
51943;SDS011;37969;53.132;6.370;2023-08-06T07:58:39;9.38;;;7.78;;
51943;SDS011;37969;53.132;6.370;2023-08-06T08:01:06;7.03;;;6.30;;
51943;SDS011;37969;53.132;6.370;2023-08-06T08:03:32;8.88;;;6.82;;
51943;SDS011;37969;53.132;6.370;2023-08-06T08:05:58;7.13;;;6.47;;
51943;SDS011;37969;53.132;6.370;2023-08-06T08:08:25;6.72;;;6.13;;
51943;SDS011;37969;53.132;6.370;2023-08-06T08:10:51;8.32;;;6.22;;
51943;SDS011;37969;53.132;6.370;2023-08-06T08:13:17;7.55;;;5.05;;
51943;SDS011;37969;53.132;6.370;2023-08-06T08:15:43;6.07;;;5.38;;
51943;SDS011;37969;53.132;6.370;2023-08-06T08:18:10;5.57;;;5.07;;
51943;SDS011;37969;53.132;6.370;2023-08-06T08:20:36;6.68;;;5.43;;
51943;SDS011;37969;53.132;6.370;2023-08-06T08:23:02;6.70;;;4.53;;
51943;SDS011;37969;53.132;6.370;2023-08-06T08:25:28;9.60;;;4.40;;
51943;SDS011;37969;53.132;6.370;2023-08-06T08:27:56;5.13;;;4.30;;
51943;SDS011;37969;53.132;6.370;2023-08-06T08:30:23;6.25;;;5.32;;
51943;SDS011;37969;53.132;6.370;2023-08-06T08:32:50;5.05;;;4.65;;
51943;SDS011;37969;53.132;6.370;2023-08-06T08:35:16;5.18;;;4.20;;
51943;SDS011;37969;53.132;6.370;2023-08-06T08:37:42;6.30;;;4.38;;
51943;SDS011;37969;53.132;6.370;2023-08-06T08:40:09;4.95;;;4.15;;
51943;SDS011;37969;53.132;6.370;2023-08-06T08:42:36;6.78;;;5.20;;
51943;SDS011;37969;53.132;6.370;2023-08-06T08:45:04;7.03;;;4.47;;
51943;SDS011;37969;53.132;6.370;2023-08-06T08:47:32;3.67;;;3.30;;
51943;SDS011;37969;53.132;6.370;2023-08-06T08:49:59;3.40;;;3.10;;
51943;SDS011;37969;53.132;6.370;2023-08-06T08:52:26;3.20;;;2.88;;
51943;SDS011;37969;53.132;6.370;2023-08-06T08:54:55;4.03;;;3.03;;
51943;SDS011;37969;53.132;6.370;2023-08-06T08:57:22;3.60;;;3.30;;
51943;SDS011;37969;53.132;6.370;2023-08-06T08:59:48;3.05;;;2.45;;
51943;SDS011;37969;53.132;6.370;2023-08-06T09:02:14;5.80;;;2.30;;
51943;SDS011;37969;53.132;6.370;2023-08-06T09:04:41;3.85;;;3.35;;
51943;SDS011;37969;53.132;6.370;2023-08-06T09:07:08;3.22;;;2.90;;
51943;SDS011;37969;53.132;6.370;2023-08-06T09:09:36;3.92;;;3.20;;
51943;SDS011;37969;53.132;6.370;2023-08-06T09:12:06;4.05;;;2.83;;
51943;SDS011;37969;53.132;6.370;2023-08-06T09:14:38;2.70;;;2.50;;
51943;SDS011;37969;53.132;6.370;2023-08-06T09:17:04;3.08;;;2.60;;
51943;SDS011;37969;53.132;6.370;2023-08-06T09:19:31;2.30;;;2.20;;
51943;SDS011;37969;53.132;6.370;2023-08-06T09:21:57;3.92;;;2.08;;
51943;SDS011;37969;53.132;6.370;2023-08-06T09:24:23;2.67;;;2.47;;
51943;SDS011;37969;53.132;6.370;2023-08-06T09:26:51;2.47;;;2.20;;
51943;SDS011;37969;53.132;6.370;2023-08-06T09:29:17;2.10;;;1.85;;
51943;SDS011;37969;53.132;6.370;2023-08-06T09:31:44;2.88;;;1.88;;
51943;SDS011;37969;53.132;6.370;2023-08-06T09:34:15;2.53;;;2.33;;
51943;SDS011;37969;53.132;6.370;2023-08-06T09:36:42;3.10;;;1.80;;
51943;SDS011;37969;53.132;6.370;2023-08-06T09:39:17;2.00;;;1.80;;
51943;SDS011;37969;53.132;6.370;2023-08-06T09:41:43;3.35;;;1.73;;
51943;SDS011;37969;53.132;6.370;2023-08-06T09:44:15;2.55;;;2.35;;
51943;SDS011;37969;53.132;6.370;2023-08-06T09:46:42;2.10;;;1.90;;
51943;SDS011;37969;53.132;6.370;2023-08-06T09:49:08;2.67;;;1.98;;
51943;SDS011;37969;53.132;6.370;2023-08-06T09:51:35;3.17;;;1.88;;
51943;SDS011;37969;53.132;6.370;2023-08-06T09:54:05;1.98;;;1.77;;
51943;SDS011;37969;53.132;6.370;2023-08-06T09:56:31;2.10;;;1.90;;
51943;SDS011;37969;53.132;6.370;2023-08-06T09:59:03;2.67;;;2.38;;
51943;SDS011;37969;53.132;6.370;2023-08-06T10:01:35;2.20;;;2.08;;
51943;SDS011;37969;53.132;6.370;2023-08-06T10:04:02;1.92;;;1.83;;
51943;SDS011;37969;53.132;6.370;2023-08-06T10:06:29;4.87;;;2.30;;
51943;SDS011;37969;53.132;6.370;2023-08-06T10:08:55;3.20;;;2.40;;
51943;SDS011;37969;53.132;6.370;2023-08-06T10:11:22;2.40;;;2.20;;
51943;SDS011;37969;53.132;6.370;2023-08-06T10:13:53;2.80;;;2.60;;
51943;SDS011;37969;53.132;6.370;2023-08-06T11:14:49;3.75;;;2.17;;
51943;SDS011;37969;53.132;6.370;2023-08-06T11:17:16;3.22;;;1.70;;
51943;SDS011;37969;53.132;6.370;2023-08-06T11:19:42;1.90;;;1.77;;
51943;SDS011;37969;53.132;6.370;2023-08-06T11:22:09;3.50;;;2.15;;
51943;SDS011;37969;53.132;6.370;2023-08-06T11:24:37;2.03;;;1.88;;
51943;SDS011;37969;53.132;6.370;2023-08-06T11:27:10;1.80;;;1.70;;
51943;SDS011;37969;53.132;6.370;2023-08-06T11:29:37;2.10;;;1.90;;
51943;SDS011;37969;53.132;6.370;2023-08-06T11:32:04;2.47;;;1.73;;
51943;SDS011;37969;53.132;6.370;2023-08-06T11:34:31;3.60;;;1.95;;
51943;SDS011;37969;53.132;6.370;2023-08-06T11:36:57;2.83;;;2.05;;
51943;SDS011;37969;53.132;6.370;2023-08-06T11:39:23;3.72;;;1.90;;
51943;SDS011;37969;53.132;6.370;2023-08-06T11:41:50;3.05;;;2.13;;
51943;SDS011;37969;53.132;6.370;2023-08-06T11:44:18;3.30;;;2.30;;
51943;SDS011;37969;53.132;6.370;2023-08-06T11:46:54;5.85;;;1.90;;
51943;SDS011;37969;53.132;6.370;2023-08-06T11:52:08;2.47;;;2.00;;
51943;SDS011;37969;53.132;6.370;2023-08-06T11:54:34;3.90;;;1.90;;
51943;SDS011;37969;53.132;6.370;2023-08-06T11:57:02;2.83;;;1.90;;
51943;SDS011;37969;53.132;6.370;2023-08-06T11:59:29;5.32;;;1.98;;
51943;SDS011;37969;53.132;6.370;2023-08-06T12:01:55;4.47;;;2.13;;
51943;SDS011;37969;53.132;6.370;2023-08-06T12:04:21;3.20;;;2.10;;
51943;SDS011;37969;53.132;6.370;2023-08-06T12:06:47;1.85;;;1.75;;
51943;SDS011;37969;53.132;6.370;2023-08-06T12:09:14;2.45;;;1.80;;
51943;SDS011;37969;53.132;6.370;2023-08-06T12:33:34;4.90;;;2.63;;
51943;SDS011;37969;53.132;6.370;2023-08-06T12:36:00;4.40;;;2.22;;
51943;SDS011;37969;53.132;6.370;2023-08-06T12:38:26;3.78;;;2.20;;
51943;SDS011;37969;53.132;6.370;2023-08-06T12:40:53;2.08;;;1.88;;
51943;SDS011;37969;53.132;6.370;2023-08-06T12:43:19;3.55;;;1.92;;
51943;SDS011;37969;53.132;6.370;2023-08-06T12:45:45;3.70;;;1.90;;
51943;SDS011;37969;53.132;6.370;2023-08-06T12:48:13;3.45;;;2.00;;
51943;SDS011;37969;53.132;6.370;2023-08-06T12:50:39;5.50;;;1.98;;
51943;SDS011;37969;53.132;6.370;2023-08-06T12:53:06;3.03;;;2.00;;
51943;SDS011;37969;53.132;6.370;2023-08-06T12:55:32;2.15;;;1.95;;
51943;SDS011;37969;53.132;6.370;2023-08-06T12:58:00;3.40;;;1.92;;
51943;SDS011;37969;53.132;6.370;2023-08-06T13:00:32;2.22;;;1.80;;
51943;SDS011;37969;53.132;6.370;2023-08-06T13:02:59;3.20;;;2.08;;
51943;SDS011;37969;53.132;6.370;2023-08-06T13:05:25;2.33;;;1.80;;
51943;SDS011;37969;53.132;6.370;2023-08-06T13:07:52;1.95;;;1.85;;
51943;SDS011;37969;53.132;6.370;2023-08-06T13:10:18;2.75;;;1.90;;
51943;SDS011;37969;53.132;6.370;2023-08-06T13:12:46;3.08;;;1.77;;
51943;SDS011;37969;53.132;6.370;2023-08-06T13:15:12;3.45;;;2.10;;
51943;SDS011;37969;53.132;6.370;2023-08-06T13:17:39;2.50;;;2.08;;
51943;SDS011;37969;53.132;6.370;2023-08-06T13:20:05;2.55;;;2.10;;
51943;SDS011;37969;53.132;6.370;2023-08-06T13:22:32;3.75;;;2.00;;
51943;SDS011;37969;53.132;6.370;2023-08-06T13:24:58;2.22;;;2.00;;
51943;SDS011;37969;53.132;6.370;2023-08-06T13:27:24;2.17;;;1.98;;
51943;SDS011;37969;53.132;6.370;2023-08-06T13:29:50;2.53;;;2.13;;
51943;SDS011;37969;53.132;6.370;2023-08-06T13:32:16;2.95;;;2.03;;
51943;SDS011;37969;53.132;6.370;2023-08-06T13:34:43;2.10;;;1.80;;
51943;SDS011;37969;53.132;6.370;2023-08-06T13:37:09;4.00;;;2.22;;
51943;SDS011;37969;53.132;6.370;2023-08-06T13:39:36;3.65;;;1.95;;
51943;SDS011;37969;53.132;6.370;2023-08-06T13:42:02;2.60;;;2.10;;
51943;SDS011;37969;53.132;6.370;2023-08-06T13:44:28;3.70;;;1.98;;
51943;SDS011;37969;53.132;6.370;2023-08-06T13:46:54;3.00;;;2.10;;
51943;SDS011;37969;53.132;6.370;2023-08-06T13:49:20;3.65;;;1.90;;
51943;SDS011;37969;53.132;6.370;2023-08-06T13:51:47;4.05;;;2.05;;
51943;SDS011;37969;53.132;6.370;2023-08-06T13:54:13;3.25;;;2.10;;
51943;SDS011;37969;53.132;6.370;2023-08-06T13:56:42;2.28;;;2.10;;
51943;SDS011;37969;53.132;6.370;2023-08-06T13:59:08;2.65;;;1.98;;
51943;SDS011;37969;53.132;6.370;2023-08-06T14:01:38;3.15;;;2.08;;
51943;SDS011;37969;53.132;6.370;2023-08-06T14:04:04;3.67;;;2.67;;
51943;SDS011;37969;53.132;6.370;2023-08-06T14:06:30;3.15;;;1.83;;
51943;SDS011;37969;53.132;6.370;2023-08-06T14:08:57;2.20;;;1.90;;
51943;SDS011;37969;53.132;6.370;2023-08-06T14:11:23;3.28;;;1.70;;
51943;SDS011;37969;53.132;6.370;2023-08-06T14:13:49;3.70;;;2.20;;
51943;SDS011;37969;53.132;6.370;2023-08-06T14:16:15;2.55;;;2.00;;
51943;SDS011;37969;53.132;6.370;2023-08-06T14:18:42;2.72;;;2.08;;
51943;SDS011;37969;53.132;6.370;2023-08-06T14:21:08;2.47;;;2.13;;
51943;SDS011;37969;53.132;6.370;2023-08-06T14:23:34;1.73;;;1.63;;
51943;SDS011;37969;53.132;6.370;2023-08-06T14:30:53;1.92;;;1.77;;
51943;SDS011;37969;53.132;6.370;2023-08-06T14:33:19;2.50;;;1.90;;
51943;SDS011;37969;53.132;6.370;2023-08-06T14:35:45;3.42;;;1.95;;
51943;SDS011;37969;53.132;6.370;2023-08-06T14:38:11;3.17;;;2.05;;
51943;SDS011;37969;53.132;6.370;2023-08-06T14:40:37;2.28;;;1.73;;
51943;SDS011;37969;53.132;6.370;2023-08-06T14:43:05;3.03;;;2.30;;
51943;SDS011;37969;53.132;6.370;2023-08-06T14:45:32;2.95;;;2.28;;
51943;SDS011;37969;53.132;6.370;2023-08-06T14:47:58;2.63;;;2.28;;
51943;SDS011;37969;53.132;6.370;2023-08-06T15:12:26;2.35;;;2.10;;
51943;SDS011;37969;53.132;6.370;2023-08-06T15:14:52;2.30;;;1.90;;
51943;SDS011;37969;53.132;6.370;2023-08-06T15:17:22;1.60;;;1.50;;
51943;SDS011;37969;53.132;6.370;2023-08-06T15:19:48;1.70;;;1.60;;
51943;SDS011;37969;53.132;6.370;2023-08-06T15:22:14;2.67;;;1.75;;
51943;SDS011;37969;53.132;6.370;2023-08-06T15:24:41;1.88;;;1.67;;
51943;SDS011;37969;53.132;6.370;2023-08-06T15:32:02;2.10;;;1.77;;
51943;SDS011;37969;53.132;6.370;2023-08-06T15:39:20;2.00;;;1.90;;
51943;SDS011;37969;53.132;6.370;2023-08-06T15:41:46;2.78;;;1.60;;
51943;SDS011;37969;53.132;6.370;2023-08-06T15:44:13;3.75;;;1.98;;
51943;SDS011;37969;53.132;6.370;2023-08-06T15:46:39;3.20;;;1.88;;
51943;SDS011;37969;53.132;6.370;2023-08-06T15:49:05;2.22;;;1.98;;
51943;SDS011;37969;53.132;6.370;2023-08-06T15:51:31;3.13;;;1.58;;
51943;SDS011;37969;53.132;6.370;2023-08-06T15:53:57;2.78;;;1.60;;
51943;SDS011;37969;53.132;6.370;2023-08-06T15:56:24;2.38;;;1.90;;
51943;SDS011;37969;53.132;6.370;2023-08-06T15:58:50;3.58;;;1.88;;
51943;SDS011;37969;53.132;6.370;2023-08-06T16:01:16;1.92;;;1.83;;
51943;SDS011;37969;53.132;6.370;2023-08-06T16:03:43;2.38;;;2.10;;
51943;SDS011;37969;53.132;6.370;2023-08-06T16:06:09;2.95;;;2.10;;
51943;SDS011;37969;53.132;6.370;2023-08-06T16:08:36;4.03;;;2.15;;
51943;SDS011;37969;53.132;6.370;2023-08-06T16:11:02;2.90;;;1.95;;
51943;SDS011;37969;53.132;6.370;2023-08-06T16:13:30;1.80;;;1.70;;
51943;SDS011;37969;53.132;6.370;2023-08-06T16:15:56;2.95;;;1.77;;
51943;SDS011;37969;53.132;6.370;2023-08-06T16:18:22;3.28;;;2.13;;
51943;SDS011;37969;53.132;6.370;2023-08-06T16:20:48;3.30;;;2.20;;
51943;SDS011;37969;53.132;6.370;2023-08-06T16:23:14;2.97;;;2.17;;
51943;SDS011;37969;53.132;6.370;2023-08-06T16:25:41;3.28;;;1.90;;
51943;SDS011;37969;53.132;6.370;2023-08-06T16:28:11;3.40;;;1.98;;
51943;SDS011;37969;53.132;6.370;2023-08-06T16:30:44;4.47;;;2.17;;
51943;SDS011;37969;53.132;6.370;2023-08-06T16:33:11;2.88;;;2.10;;
51943;SDS011;37969;53.132;6.370;2023-08-06T16:35:37;2.33;;;1.92;;
51943;SDS011;37969;53.132;6.370;2023-08-06T16:38:03;2.58;;;2.10;;
51943;SDS011;37969;53.132;6.370;2023-08-06T16:40:31;3.08;;;1.90;;
51943;SDS011;37969;53.132;6.370;2023-08-06T16:42:57;2.25;;;2.05;;
51943;SDS011;37969;53.132;6.370;2023-08-06T16:45:23;4.15;;;2.13;;
51943;SDS011;37969;53.132;6.370;2023-08-06T16:47:50;2.08;;;1.70;;
51943;SDS011;37969;53.132;6.370;2023-08-06T16:50:16;3.78;;;1.95;;
51943;SDS011;37969;53.132;6.370;2023-08-06T16:52:42;3.65;;;1.80;;
51943;SDS011;37969;53.132;6.370;2023-08-06T16:55:08;2.40;;;2.05;;
51943;SDS011;37969;53.132;6.370;2023-08-06T16:57:34;3.60;;;1.80;;
51943;SDS011;37969;53.132;6.370;2023-08-06T17:00:01;2.10;;;1.90;;
51943;SDS011;37969;53.132;6.370;2023-08-06T17:02:27;2.72;;;2.10;;
51943;SDS011;37969;53.132;6.370;2023-08-06T17:04:53;3.60;;;2.30;;
51943;SDS011;37969;53.132;6.370;2023-08-06T17:07:19;3.65;;;2.25;;
51943;SDS011;37969;53.132;6.370;2023-08-06T17:09:45;2.83;;;2.50;;
51943;SDS011;37969;53.132;6.370;2023-08-06T17:12:11;4.15;;;2.72;;
51943;SDS011;37969;53.132;6.370;2023-08-06T17:14:42;5.28;;;3.30;;
51943;SDS011;37969;53.132;6.370;2023-08-06T17:17:08;5.10;;;2.83;;
51943;SDS011;37969;53.132;6.370;2023-08-06T17:19:34;3.60;;;2.40;;
51943;SDS011;37969;53.132;6.370;2023-08-06T17:22:02;3.35;;;2.85;;
51943;SDS011;37969;53.132;6.370;2023-08-06T17:24:29;4.45;;;2.38;;
51943;SDS011;37969;53.132;6.370;2023-08-06T17:26:55;6.13;;;2.63;;
51943;SDS011;37969;53.132;6.370;2023-08-06T17:29:25;5.70;;;2.38;;
51943;SDS011;37969;53.132;6.370;2023-08-06T17:31:51;2.28;;;2.03;;
51943;SDS011;37969;53.132;6.370;2023-08-06T17:34:18;3.65;;;2.08;;
51943;SDS011;37969;53.132;6.370;2023-08-06T17:36:44;3.20;;;2.70;;
51943;SDS011;37969;53.132;6.370;2023-08-06T17:39:10;2.78;;;1.85;;
51943;SDS011;37969;53.132;6.370;2023-08-06T17:41:36;3.95;;;2.30;;
51943;SDS011;37969;53.132;6.370;2023-08-06T17:44:03;2.67;;;1.90;;
51943;SDS011;37969;53.132;6.370;2023-08-06T17:46:29;2.63;;;2.17;;
51943;SDS011;37969;53.132;6.370;2023-08-06T17:48:55;2.35;;;2.15;;
51943;SDS011;37969;53.132;6.370;2023-08-06T17:51:22;3.90;;;2.38;;
51943;SDS011;37969;53.132;6.370;2023-08-06T17:53:48;2.47;;;1.90;;
51943;SDS011;37969;53.132;6.370;2023-08-06T17:56:14;3.00;;;2.25;;
51943;SDS011;37969;53.132;6.370;2023-08-06T17:58:41;4.45;;;2.00;;
51943;SDS011;37969;53.132;6.370;2023-08-06T18:01:07;5.18;;;2.40;;
51943;SDS011;37969;53.132;6.370;2023-08-06T18:03:34;4.05;;;2.17;;
51943;SDS011;37969;53.132;6.370;2023-08-06T18:06:00;3.45;;;2.33;;
51943;SDS011;37969;53.132;6.370;2023-08-06T18:08:26;3.90;;;2.33;;
51943;SDS011;37969;53.132;6.370;2023-08-06T18:10:55;3.75;;;2.70;;
51943;SDS011;37969;53.132;6.370;2023-08-06T18:13:21;3.03;;;2.45;;
51943;SDS011;37969;53.132;6.370;2023-08-06T18:15:47;8.15;;;2.92;;
51943;SDS011;37969;53.132;6.370;2023-08-06T18:18:15;5.65;;;3.05;;
51943;SDS011;37969;53.132;6.370;2023-08-06T18:20:41;8.45;;;3.33;;
51943;SDS011;37969;53.132;6.370;2023-08-06T18:23:07;5.15;;;3.20;;
51943;SDS011;37969;53.132;6.370;2023-08-06T18:25:33;5.28;;;3.25;;
51943;SDS011;37969;53.132;6.370;2023-08-06T18:28:00;3.63;;;3.20;;
51943;SDS011;37969;53.132;6.370;2023-08-06T18:30:26;5.40;;;3.38;;
51943;SDS011;37969;53.132;6.370;2023-08-06T18:32:52;6.28;;;3.45;;
51943;SDS011;37969;53.132;6.370;2023-08-06T18:35:19;5.32;;;3.97;;
51943;SDS011;37969;53.132;6.370;2023-08-06T18:37:45;5.40;;;3.50;;
51943;SDS011;37969;53.132;6.370;2023-08-06T18:40:11;5.55;;;4.20;;
51943;SDS011;37969;53.132;6.370;2023-08-06T18:42:37;7.63;;;4.07;;
51943;SDS011;37969;53.132;6.370;2023-08-06T18:45:06;8.40;;;3.97;;
51943;SDS011;37969;53.132;6.370;2023-08-06T18:47:32;8.20;;;3.90;;
51943;SDS011;37969;53.132;6.370;2023-08-06T18:49:59;8.35;;;4.55;;
51943;SDS011;37969;53.132;6.370;2023-08-06T18:52:25;5.68;;;3.88;;
51943;SDS011;37969;53.132;6.370;2023-08-06T18:54:52;5.53;;;4.55;;
51943;SDS011;37969;53.132;6.370;2023-08-06T18:57:19;8.43;;;4.93;;
51943;SDS011;37969;53.132;6.370;2023-08-06T18:59:47;8.82;;;4.90;;
51943;SDS011;37969;53.132;6.370;2023-08-06T19:02:18;9.65;;;4.78;;
51943;SDS011;37969;53.132;6.370;2023-08-06T19:04:44;5.38;;;4.00;;
51943;SDS011;37969;53.132;6.370;2023-08-06T19:07:12;6.47;;;4.55;;
51943;SDS011;37969;53.132;6.370;2023-08-06T19:09:39;4.20;;;3.88;;
51943;SDS011;37969;53.132;6.370;2023-08-06T19:12:09;4.50;;;3.63;;